sensor_id;sensor_type;location;lat;lon;timestamp;temperature;humidity
66608;DHT22;53462;39.616;8.824;2022-08-21T00:01:37;23.30;75.70
66608;DHT22;53462;39.616;8.824;2022-08-21T00:04:07;23.20;75.80
66608;DHT22;53462;39.616;8.824;2022-08-21T00:06:34;23.00;76.20
66608;DHT22;53462;39.616;8.824;2022-08-21T00:09:01;22.80;76.80
66608;DHT22;53462;39.616;8.824;2022-08-21T00:11:27;22.70;77.00
66608;DHT22;53462;39.616;8.824;2022-08-21T00:13:54;22.70;77.30
66608;DHT22;53462;39.616;8.824;2022-08-21T00:16:20;22.60;77.70
66608;DHT22;53462;39.616;8.824;2022-08-21T00:18:46;22.60;78.10
66608;DHT22;53462;39.616;8.824;2022-08-21T00:21:14;22.50;78.30
66608;DHT22;53462;39.616;8.824;2022-08-21T00:23:40;22.30;79.30
66608;DHT22;53462;39.616;8.824;2022-08-21T00:26:07;22.20;79.80
66608;DHT22;53462;39.616;8.824;2022-08-21T00:28:33;22.20;80.20
66608;DHT22;53462;39.616;8.824;2022-08-21T00:30:59;22.10;80.30
66608;DHT22;53462;39.616;8.824;2022-08-21T00:33:26;22.10;80.70
66608;DHT22;53462;39.616;8.824;2022-08-21T00:35:52;22.00;80.80
66608;DHT22;53462;39.616;8.824;2022-08-21T00:38:18;21.90;81.00
66608;DHT22;53462;39.616;8.824;2022-08-21T00:40:48;21.80;81.30
66608;DHT22;53462;39.616;8.824;2022-08-21T00:43:18;21.90;81.10
66608;DHT22;53462;39.616;8.824;2022-08-21T00:45:45;21.80;81.20
66608;DHT22;53462;39.616;8.824;2022-08-21T00:48:11;21.80;81.80
66608;DHT22;53462;39.616;8.824;2022-08-21T00:50:42;21.80;81.90
66608;DHT22;53462;39.616;8.824;2022-08-21T00:53:10;21.60;81.90
66608;DHT22;53462;39.616;8.824;2022-08-21T00:55:37;21.70;82.10
66608;DHT22;53462;39.616;8.824;2022-08-21T00:58:06;21.70;82.00
66608;DHT22;53462;39.616;8.824;2022-08-21T01:00:35;21.70;81.90
66608;DHT22;53462;39.616;8.824;2022-08-21T01:03:07;21.70;82.00
66608;DHT22;53462;39.616;8.824;2022-08-21T01:05:35;21.60;82.60
66608;DHT22;53462;39.616;8.824;2022-08-21T01:08:01;21.70;82.50
66608;DHT22;53462;39.616;8.824;2022-08-21T01:10:27;21.60;82.70
66608;DHT22;53462;39.616;8.824;2022-08-21T01:12:54;21.60;83.00
66608;DHT22;53462;39.616;8.824;2022-08-21T01:15:24;21.50;83.10
66608;DHT22;53462;39.616;8.824;2022-08-21T01:17:51;21.50;83.20
66608;DHT22;53462;39.616;8.824;2022-08-21T01:20:18;21.60;83.20
66608;DHT22;53462;39.616;8.824;2022-08-21T01:22:43;21.40;83.00
66608;DHT22;53462;39.616;8.824;2022-08-21T01:25:14;21.40;83.30
66608;DHT22;53462;39.616;8.824;2022-08-21T01:27:40;21.30;83.40
66608;DHT22;53462;39.616;8.824;2022-08-21T01:30:11;21.20;83.70
66608;DHT22;53462;39.616;8.824;2022-08-21T01:32:38;21.30;83.40
66608;DHT22;53462;39.616;8.824;2022-08-21T01:35:05;21.40;83.00
66608;DHT22;53462;39.616;8.824;2022-08-21T01:37:31;21.40;82.90
66608;DHT22;53462;39.616;8.824;2022-08-21T01:39:57;21.40;82.50
66608;DHT22;53462;39.616;8.824;2022-08-21T01:42:23;21.50;82.30
66608;DHT22;53462;39.616;8.824;2022-08-21T01:44:49;21.40;82.40
66608;DHT22;53462;39.616;8.824;2022-08-21T01:47:15;21.40;82.50
66608;DHT22;53462;39.616;8.824;2022-08-21T01:49:42;21.40;82.60
66608;DHT22;53462;39.616;8.824;2022-08-21T01:52:09;21.50;82.60
66608;DHT22;53462;39.616;8.824;2022-08-21T01:54:35;21.50;82.30
66608;DHT22;53462;39.616;8.824;2022-08-21T01:57:02;21.50;82.30
66608;DHT22;53462;39.616;8.824;2022-08-21T01:59:28;21.40;82.60
66608;DHT22;53462;39.616;8.824;2022-08-21T02:01:54;21.40;82.80
66608;DHT22;53462;39.616;8.824;2022-08-21T02:04:21;21.50;82.80
66608;DHT22;53462;39.616;8.824;2022-08-21T02:06:47;21.50;82.20
66608;DHT22;53462;39.616;8.824;2022-08-21T02:09:13;21.30;82.50
66608;DHT22;53462;39.616;8.824;2022-08-21T02:11:40;21.30;82.70
66608;DHT22;53462;39.616;8.824;2022-08-21T02:14:12;21.30;82.50
66608;DHT22;53462;39.616;8.824;2022-08-21T02:16:40;21.40;82.90
66608;DHT22;53462;39.616;8.824;2022-08-21T02:19:07;21.20;82.60
66608;DHT22;53462;39.616;8.824;2022-08-21T02:21:33;21.20;83.00
66608;DHT22;53462;39.616;8.824;2022-08-21T02:23:59;21.10;83.30
66608;DHT22;53462;39.616;8.824;2022-08-21T02:26:25;21.20;83.30
66608;DHT22;53462;39.616;8.824;2022-08-21T02:28:52;21.20;83.50
66608;DHT22;53462;39.616;8.824;2022-08-21T02:31:18;21.20;83.50
66608;DHT22;53462;39.616;8.824;2022-08-21T02:33:44;21.20;83.40
66608;DHT22;53462;39.616;8.824;2022-08-21T02:36:11;21.10;83.50
66608;DHT22;53462;39.616;8.824;2022-08-21T02:38:39;21.10;83.90
66608;DHT22;53462;39.616;8.824;2022-08-21T02:41:16;21.10;83.80
66608;DHT22;53462;39.616;8.824;2022-08-21T02:43:44;21.20;83.70
66608;DHT22;53462;39.616;8.824;2022-08-21T02:46:12;21.20;83.70
66608;DHT22;53462;39.616;8.824;2022-08-21T02:48:39;21.20;83.70
66608;DHT22;53462;39.616;8.824;2022-08-21T02:51:11;21.30;83.20
66608;DHT22;53462;39.616;8.824;2022-08-21T02:53:38;21.20;83.30
66608;DHT22;53462;39.616;8.824;2022-08-21T02:56:07;21.20;83.40
66608;DHT22;53462;39.616;8.824;2022-08-21T02:58:36;21.20;83.50
66608;DHT22;53462;39.616;8.824;2022-08-21T03:01:04;21.20;83.40
66608;DHT22;53462;39.616;8.824;2022-08-21T03:03:31;21.20;83.30
66608;DHT22;53462;39.616;8.824;2022-08-21T03:05:57;21.20;83.00
66608;DHT22;53462;39.616;8.824;2022-08-21T03:08:23;21.30;82.70
66608;DHT22;53462;39.616;8.824;2022-08-21T03:10:51;21.30;82.90
66608;DHT22;53462;39.616;8.824;2022-08-21T03:13:18;21.20;83.30
66608;DHT22;53462;39.616;8.824;2022-08-21T03:15:46;21.20;83.60
66608;DHT22;53462;39.616;8.824;2022-08-21T03:18:13;21.20;83.70
66608;DHT22;53462;39.616;8.824;2022-08-21T03:20:41;21.20;83.50
66608;DHT22;53462;39.616;8.824;2022-08-21T03:23:08;21.10;83.80
66608;DHT22;53462;39.616;8.824;2022-08-21T03:25:35;21.00;84.50
66608;DHT22;53462;39.616;8.824;2022-08-21T03:28:03;21.10;85.00
66608;DHT22;53462;39.616;8.824;2022-08-21T03:30:29;21.10;85.00
66608;DHT22;53462;39.616;8.824;2022-08-21T03:32:57;21.00;85.00
66608;DHT22;53462;39.616;8.824;2022-08-21T03:35:25;20.90;85.40
66608;DHT22;53462;39.616;8.824;2022-08-21T03:37:51;20.90;85.70
66608;DHT22;53462;39.616;8.824;2022-08-21T03:40:19;20.80;86.20
66608;DHT22;53462;39.616;8.824;2022-08-21T03:42:46;20.70;86.30
66608;DHT22;53462;39.616;8.824;2022-08-21T03:45:14;20.70;86.60
66608;DHT22;53462;39.616;8.824;2022-08-21T03:48:01;20.70;86.70
66608;DHT22;53462;39.616;8.824;2022-08-21T03:50:32;20.80;86.50
66608;DHT22;53462;39.616;8.824;2022-08-21T03:52:59;20.90;86.10
66608;DHT22;53462;39.616;8.824;2022-08-21T03:55:26;20.90;85.70
66608;DHT22;53462;39.616;8.824;2022-08-21T03:57:52;20.80;85.70
66608;DHT22;53462;39.616;8.824;2022-08-21T04:00:20;20.70;86.10
66608;DHT22;53462;39.616;8.824;2022-08-21T04:02:46;20.70;86.60
66608;DHT22;53462;39.616;8.824;2022-08-21T04:05:14;20.70;86.70
66608;DHT22;53462;39.616;8.824;2022-08-21T04:08:03;20.80;86.90
66608;DHT22;53462;39.616;8.824;2022-08-21T04:10:31;20.80;87.10
66608;DHT22;53462;39.616;8.824;2022-08-21T04:12:58;20.80;87.40
66608;DHT22;53462;39.616;8.824;2022-08-21T04:15:25;20.90;87.70
66608;DHT22;53462;39.616;8.824;2022-08-21T04:17:52;20.90;87.70
66608;DHT22;53462;39.616;8.824;2022-08-21T04:20:19;21.10;87.80
66608;DHT22;53462;39.616;8.824;2022-08-21T04:22:45;21.20;87.60
66608;DHT22;53462;39.616;8.824;2022-08-21T04:25:13;21.20;87.00
66608;DHT22;53462;39.616;8.824;2022-08-21T04:27:40;21.10;87.20
66608;DHT22;53462;39.616;8.824;2022-08-21T04:30:07;21.20;87.30
66608;DHT22;53462;39.616;8.824;2022-08-21T04:32:35;21.30;86.90
66608;DHT22;53462;39.616;8.824;2022-08-21T04:35:05;21.30;86.80
66608;DHT22;53462;39.616;8.824;2022-08-21T04:37:32;21.40;86.60
66608;DHT22;53462;39.616;8.824;2022-08-21T04:39:58;21.30;86.40
66608;DHT22;53462;39.616;8.824;2022-08-21T04:42:26;21.30;86.40
66608;DHT22;53462;39.616;8.824;2022-08-21T04:44:54;21.40;86.50
66608;DHT22;53462;39.616;8.824;2022-08-21T04:47:20;21.30;86.40
66608;DHT22;53462;39.616;8.824;2022-08-21T04:49:46;21.40;86.30
66608;DHT22;53462;39.616;8.824;2022-08-21T04:52:20;21.50;86.20
66608;DHT22;53462;39.616;8.824;2022-08-21T04:54:47;21.60;86.00
66608;DHT22;53462;39.616;8.824;2022-08-21T04:57:15;21.60;85.90
66608;DHT22;53462;39.616;8.824;2022-08-21T04:59:45;21.60;85.90
66608;DHT22;53462;39.616;8.824;2022-08-21T05:02:13;21.60;85.80
66608;DHT22;53462;39.616;8.824;2022-08-21T05:04:43;21.60;85.70
66608;DHT22;53462;39.616;8.824;2022-08-21T05:07:27;21.70;85.70
66608;DHT22;53462;39.616;8.824;2022-08-21T05:09:54;21.60;85.50
66608;DHT22;53462;39.616;8.824;2022-08-21T05:12:20;21.70;85.80
66608;DHT22;53462;39.616;8.824;2022-08-21T05:14:47;21.60;85.60
66608;DHT22;53462;39.616;8.824;2022-08-21T05:17:14;21.80;85.50
66608;DHT22;53462;39.616;8.824;2022-08-21T05:19:40;21.90;85.20
66608;DHT22;53462;39.616;8.824;2022-08-21T05:22:07;21.90;85.00
66608;DHT22;53462;39.616;8.824;2022-08-21T05:24:35;22.00;84.70
66608;DHT22;53462;39.616;8.824;2022-08-21T05:27:01;21.90;85.00
66608;DHT22;53462;39.616;8.824;2022-08-21T05:29:27;22.00;85.00
66608;DHT22;53462;39.616;8.824;2022-08-21T05:31:55;22.10;84.80
66608;DHT22;53462;39.616;8.824;2022-08-21T05:34:23;22.20;84.40
66608;DHT22;53462;39.616;8.824;2022-08-21T05:36:49;22.30;84.20
66608;DHT22;53462;39.616;8.824;2022-08-21T05:39:15;22.40;84.00
66608;DHT22;53462;39.616;8.824;2022-08-21T05:41:41;22.60;83.70
66608;DHT22;53462;39.616;8.824;2022-08-21T05:44:07;22.60;83.50
66608;DHT22;53462;39.616;8.824;2022-08-21T05:46:33;22.70;83.30
66608;DHT22;53462;39.616;8.824;2022-08-21T05:48:59;22.80;82.90
66608;DHT22;53462;39.616;8.824;2022-08-21T05:51:25;22.90;82.40
66608;DHT22;53462;39.616;8.824;2022-08-21T05:53:51;23.10;81.90
66608;DHT22;53462;39.616;8.824;2022-08-21T05:56:17;23.10;81.90
66608;DHT22;53462;39.616;8.824;2022-08-21T05:58:43;23.20;81.70
66608;DHT22;53462;39.616;8.824;2022-08-21T06:01:10;23.40;80.80
66608;DHT22;53462;39.616;8.824;2022-08-21T06:03:38;23.50;80.20
66608;DHT22;53462;39.616;8.824;2022-08-21T06:06:05;23.70;79.70
66608;DHT22;53462;39.616;8.824;2022-08-21T06:08:31;23.80;79.10
66608;DHT22;53462;39.616;8.824;2022-08-21T06:10:59;24.10;78.70
66608;DHT22;53462;39.616;8.824;2022-08-21T06:13:25;24.20;78.00
66608;DHT22;53462;39.616;8.824;2022-08-21T06:16:08;24.90;76.50
66608;DHT22;53462;39.616;8.824;2022-08-21T06:18:35;24.90;74.40
66608;DHT22;53462;39.616;8.824;2022-08-21T06:21:02;24.80;75.30
66608;DHT22;53462;39.616;8.824;2022-08-21T06:23:28;24.90;75.40
66608;DHT22;53462;39.616;8.824;2022-08-21T06:25:54;24.90;75.30
66608;DHT22;53462;39.616;8.824;2022-08-21T06:28:20;25.00;75.20
66608;DHT22;53462;39.616;8.824;2022-08-21T06:30:46;25.10;74.50
66608;DHT22;53462;39.616;8.824;2022-08-21T06:33:12;25.20;74.30
66608;DHT22;53462;39.616;8.824;2022-08-21T06:35:38;25.50;73.80
66608;DHT22;53462;39.616;8.824;2022-08-21T06:38:04;25.70;73.30
66608;DHT22;53462;39.616;8.824;2022-08-21T06:40:31;25.90;73.10
66608;DHT22;53462;39.616;8.824;2022-08-21T06:42:58;26.10;73.00
66608;DHT22;53462;39.616;8.824;2022-08-21T06:45:24;26.10;73.00
66608;DHT22;53462;39.616;8.824;2022-08-21T06:47:50;26.30;73.00
66608;DHT22;53462;39.616;8.824;2022-08-21T06:50:16;26.50;72.20
66608;DHT22;53462;39.616;8.824;2022-08-21T06:52:42;26.50;72.30
66608;DHT22;53462;39.616;8.824;2022-08-21T06:55:09;26.50;72.20
66608;DHT22;53462;39.616;8.824;2022-08-21T06:57:35;26.60;71.10
66608;DHT22;53462;39.616;8.824;2022-08-21T07:00:05;26.70;71.20
66608;DHT22;53462;39.616;8.824;2022-08-21T07:02:32;26.90;71.00
66608;DHT22;53462;39.616;8.824;2022-08-21T07:04:59;26.90;70.20
66608;DHT22;53462;39.616;8.824;2022-08-21T07:07:25;27.00;70.50
66608;DHT22;53462;39.616;8.824;2022-08-21T07:09:51;27.10;70.50
66608;DHT22;53462;39.616;8.824;2022-08-21T07:12:16;27.20;70.20
66608;DHT22;53462;39.616;8.824;2022-08-21T07:14:42;27.30;70.30
66608;DHT22;53462;39.616;8.824;2022-08-21T07:17:08;27.40;70.40
66608;DHT22;53462;39.616;8.824;2022-08-21T07:19:34;27.50;69.60
66608;DHT22;53462;39.616;8.824;2022-08-21T07:22:01;27.50;68.80
66608;DHT22;53462;39.616;8.824;2022-08-21T07:24:28;27.60;68.70
66608;DHT22;53462;39.616;8.824;2022-08-21T07:26:54;27.70;68.60
66608;DHT22;53462;39.616;8.824;2022-08-21T07:29:20;27.90;68.00
66608;DHT22;53462;39.616;8.824;2022-08-21T07:31:46;28.00;67.60
66608;DHT22;53462;39.616;8.824;2022-08-21T07:34:13;28.20;67.20
66608;DHT22;53462;39.616;8.824;2022-08-21T07:36:39;28.40;66.70
66608;DHT22;53462;39.616;8.824;2022-08-21T07:39:05;28.30;66.90
66608;DHT22;53462;39.616;8.824;2022-08-21T07:41:31;28.30;66.70
66608;DHT22;53462;39.616;8.824;2022-08-21T07:43:58;28.50;66.30
66608;DHT22;53462;39.616;8.824;2022-08-21T07:46:25;28.70;65.90
66608;DHT22;53462;39.616;8.824;2022-08-21T07:48:52;28.70;65.40
66608;DHT22;53462;39.616;8.824;2022-08-21T07:51:19;28.70;65.30
66608;DHT22;53462;39.616;8.824;2022-08-21T07:53:50;28.70;65.00
66608;DHT22;53462;39.616;8.824;2022-08-21T07:56:18;28.40;65.40
66608;DHT22;53462;39.616;8.824;2022-08-21T07:58:44;28.40;65.30
66608;DHT22;53462;39.616;8.824;2022-08-21T08:01:10;28.70;63.40
66608;DHT22;53462;39.616;8.824;2022-08-21T08:03:36;29.10;62.90
66608;DHT22;53462;39.616;8.824;2022-08-21T08:06:02;29.30;60.70
66608;DHT22;53462;39.616;8.824;2022-08-21T08:08:31;29.30;61.20
66608;DHT22;53462;39.616;8.824;2022-08-21T08:10:58;29.50;60.90
66608;DHT22;53462;39.616;8.824;2022-08-21T08:13:24;29.60;60.90
66608;DHT22;53462;39.616;8.824;2022-08-21T08:15:51;29.80;58.70
66608;DHT22;53462;39.616;8.824;2022-08-21T08:18:17;29.90;58.40
66608;DHT22;53462;39.616;8.824;2022-08-21T08:20:43;29.90;59.20
66608;DHT22;53462;39.616;8.824;2022-08-21T08:23:13;30.10;59.50
66608;DHT22;53462;39.616;8.824;2022-08-21T08:25:40;30.20;59.30
66608;DHT22;53462;39.616;8.824;2022-08-21T08:28:06;30.40;58.10
66608;DHT22;53462;39.616;8.824;2022-08-21T08:30:32;30.60;57.30
66608;DHT22;53462;39.616;8.824;2022-08-21T08:32:58;30.70;56.60
66608;DHT22;53462;39.616;8.824;2022-08-21T08:35:25;30.80;56.80
66608;DHT22;53462;39.616;8.824;2022-08-21T08:37:52;30.70;57.90
66608;DHT22;53462;39.616;8.824;2022-08-21T08:40:31;30.80;56.80
66608;DHT22;53462;39.616;8.824;2022-08-21T08:42:59;31.00;55.60
66608;DHT22;53462;39.616;8.824;2022-08-21T08:45:26;31.10;54.00
66608;DHT22;53462;39.616;8.824;2022-08-21T08:47:57;31.30;53.60
66608;DHT22;53462;39.616;8.824;2022-08-21T08:50:28;31.30;54.90
66608;DHT22;53462;39.616;8.824;2022-08-21T08:53:05;31.10;55.20
66608;DHT22;53462;39.616;8.824;2022-08-21T08:55:37;31.30;55.00
66608;DHT22;53462;39.616;8.824;2022-08-21T08:58:05;31.50;54.60
66608;DHT22;53462;39.616;8.824;2022-08-21T09:00:31;31.30;54.80
66608;DHT22;53462;39.616;8.824;2022-08-21T09:02:59;30.90;55.80
66608;DHT22;53462;39.616;8.824;2022-08-21T09:05:28;30.10;57.00
66608;DHT22;53462;39.616;8.824;2022-08-21T09:11:00;30.90;54.00
66608;DHT22;53462;39.616;8.824;2022-08-21T09:13:46;31.40;53.50
66608;DHT22;53462;39.616;8.824;2022-08-21T09:27:14;31.40;52.50
66608;DHT22;53462;39.616;8.824;2022-08-21T09:29:47;31.50;52.40
66608;DHT22;53462;39.616;8.824;2022-08-21T09:32:19;32.20;52.40
66608;DHT22;53462;39.616;8.824;2022-08-21T09:43:39;32.40;50.60
66608;DHT22;53462;39.616;8.824;2022-08-21T09:45:48;32.80;50.70
66608;DHT22;53462;39.616;8.824;2022-08-21T09:48:23;33.00;49.30
66608;DHT22;53462;39.616;8.824;2022-08-21T09:50:51;33.20;47.10
66608;DHT22;53462;39.616;8.824;2022-08-21T09:53:24;33.30;47.80
66608;DHT22;53462;39.616;8.824;2022-08-21T09:55:56;33.40;46.40
66608;DHT22;53462;39.616;8.824;2022-08-21T09:58:45;33.50;48.20
66608;DHT22;53462;39.616;8.824;2022-08-21T10:01:19;33.30;49.10
66608;DHT22;53462;39.616;8.824;2022-08-21T10:03:46;33.10;48.90
66608;DHT22;53462;39.616;8.824;2022-08-21T10:06:22;32.90;47.90
66608;DHT22;53462;39.616;8.824;2022-08-21T10:08:49;32.90;49.40
66608;DHT22;53462;39.616;8.824;2022-08-21T10:11:16;32.70;48.60
66608;DHT22;53462;39.616;8.824;2022-08-21T10:17:50;33.00;47.80
66608;DHT22;53462;39.616;8.824;2022-08-21T10:20:04;32.80;48.80
66608;DHT22;53462;39.616;8.824;2022-08-21T10:22:38;33.20;48.90
66608;DHT22;53462;39.616;8.824;2022-08-21T10:25:26;33.10;49.50
66608;DHT22;53462;39.616;8.824;2022-08-21T10:28:18;33.50;47.50
66608;DHT22;53462;39.616;8.824;2022-08-21T10:39:36;33.90;45.80
66608;DHT22;53462;39.616;8.824;2022-08-21T10:42:14;33.50;46.00
66608;DHT22;53462;39.616;8.824;2022-08-21T10:45:00;33.70;47.40
66608;DHT22;53462;39.616;8.824;2022-08-21T10:47:34;33.80;47.30
66608;DHT22;53462;39.616;8.824;2022-08-21T10:55:16;34.10;45.60
66608;DHT22;53462;39.616;8.824;2022-08-21T11:00:53;34.50;46.20
66608;DHT22;53462;39.616;8.824;2022-08-21T11:06:09;34.30;46.80
66608;DHT22;53462;39.616;8.824;2022-08-21T11:08:46;34.60;45.80
66608;DHT22;53462;39.616;8.824;2022-08-21T11:11:25;34.70;45.50
66608;DHT22;53462;39.616;8.824;2022-08-21T11:13:59;34.60;45.60
66608;DHT22;53462;39.616;8.824;2022-08-21T11:16:37;34.30;47.20
66608;DHT22;53462;39.616;8.824;2022-08-21T11:19:30;33.70;45.40
66608;DHT22;53462;39.616;8.824;2022-08-21T11:22:21;33.00;47.60
66608;DHT22;53462;39.616;8.824;2022-08-21T11:29:49;34.30;45.70
66608;DHT22;53462;39.616;8.824;2022-08-21T11:40:29;34.90;45.40
66608;DHT22;53462;39.616;8.824;2022-08-21T11:45:56;35.40;44.30
66608;DHT22;53462;39.616;8.824;2022-08-21T11:48:46;34.40;44.30
66608;DHT22;53462;39.616;8.824;2022-08-21T11:51:24;34.60;44.10
66608;DHT22;53462;39.616;8.824;2022-08-21T11:54:16;34.30;45.40
66608;DHT22;53462;39.616;8.824;2022-08-21T11:57:02;34.30;45.20
66608;DHT22;53462;39.616;8.824;2022-08-21T12:02:50;33.00;47.80
66608;DHT22;53462;39.616;8.824;2022-08-21T12:05:36;33.70;46.70
66608;DHT22;53462;39.616;8.824;2022-08-21T12:10:39;33.80;46.50
66608;DHT22;53462;39.616;8.824;2022-08-21T12:13:27;34.30;45.60
66608;DHT22;53462;39.616;8.824;2022-08-21T12:16:04;34.90;44.50
66608;DHT22;53462;39.616;8.824;2022-08-21T12:18:31;34.50;42.20
66608;DHT22;53462;39.616;8.824;2022-08-21T12:21:25;33.80;45.90
66608;DHT22;53462;39.616;8.824;2022-08-21T12:26:52;34.80;44.00
66608;DHT22;53462;39.616;8.824;2022-08-21T12:34:46;35.30;42.20
66608;DHT22;53462;39.616;8.824;2022-08-21T12:37:15;35.00;41.50
66608;DHT22;53462;39.616;8.824;2022-08-21T12:39:47;35.10;41.70
66608;DHT22;53462;39.616;8.824;2022-08-21T12:42:38;35.30;42.80
66608;DHT22;53462;39.616;8.824;2022-08-21T12:45:34;35.50;41.20
66608;DHT22;53462;39.616;8.824;2022-08-21T12:48:09;35.40;40.20
66608;DHT22;53462;39.616;8.824;2022-08-21T12:50:52;35.30;40.40
66608;DHT22;53462;39.616;8.824;2022-08-21T12:56:10;34.90;39.40
66608;DHT22;53462;39.616;8.824;2022-08-21T12:58:39;35.00;37.40
66608;DHT22;53462;39.616;8.824;2022-08-21T13:03:58;35.00;37.10
66608;DHT22;53462;39.616;8.824;2022-08-21T13:06:27;35.20;36.60
66608;DHT22;53462;39.616;8.824;2022-08-21T13:08:58;35.00;36.30
66608;DHT22;53462;39.616;8.824;2022-08-21T13:11:29;34.70;35.70
66608;DHT22;53462;39.616;8.824;2022-08-21T13:13:55;34.70;35.20
66608;DHT22;53462;39.616;8.824;2022-08-21T13:16:24;34.80;33.80
66608;DHT22;53462;39.616;8.824;2022-08-21T13:19:01;34.80;33.40
66608;DHT22;53462;39.616;8.824;2022-08-21T13:21:33;34.40;33.30
66608;DHT22;53462;39.616;8.824;2022-08-21T13:26:41;34.50;35.40
66608;DHT22;53462;39.616;8.824;2022-08-21T13:29:10;34.10;33.80
66608;DHT22;53462;39.616;8.824;2022-08-21T13:31:38;34.20;34.70
66608;DHT22;53462;39.616;8.824;2022-08-21T13:34:05;34.10;34.40
66608;DHT22;53462;39.616;8.824;2022-08-21T13:36:37;34.30;34.40
66608;DHT22;53462;39.616;8.824;2022-08-21T13:39:05;34.10;33.80
66608;DHT22;53462;39.616;8.824;2022-08-21T13:41:35;33.80;33.80
66608;DHT22;53462;39.616;8.824;2022-08-21T13:44:24;34.00;33.90
66608;DHT22;53462;39.616;8.824;2022-08-21T13:46:53;34.20;34.10
66608;DHT22;53462;39.616;8.824;2022-08-21T13:49:26;33.90;33.00
66608;DHT22;53462;39.616;8.824;2022-08-21T13:51:54;33.80;34.10
66608;DHT22;53462;39.616;8.824;2022-08-21T13:54:24;33.70;33.40
66608;DHT22;53462;39.616;8.824;2022-08-21T13:56:51;33.20;34.60
66608;DHT22;53462;39.616;8.824;2022-08-21T13:59:29;33.30;33.90
66608;DHT22;53462;39.616;8.824;2022-08-21T14:02:17;33.20;34.90
66608;DHT22;53462;39.616;8.824;2022-08-21T14:05:07;33.30;34.50
66608;DHT22;53462;39.616;8.824;2022-08-21T14:07:40;33.10;34.70
66608;DHT22;53462;39.616;8.824;2022-08-21T14:10:25;33.40;34.50
66608;DHT22;53462;39.616;8.824;2022-08-21T14:13:03;33.70;34.50
66608;DHT22;53462;39.616;8.824;2022-08-21T14:15:32;33.40;34.00
66608;DHT22;53462;39.616;8.824;2022-08-21T14:18:13;33.30;34.60
66608;DHT22;53462;39.616;8.824;2022-08-21T14:20:40;32.90;35.20
66608;DHT22;53462;39.616;8.824;2022-08-21T14:23:06;33.10;35.10
66608;DHT22;53462;39.616;8.824;2022-08-21T14:25:41;33.30;34.90
66608;DHT22;53462;39.616;8.824;2022-08-21T14:28:26;33.20;34.70
66608;DHT22;53462;39.616;8.824;2022-08-21T14:30:54;32.80;34.90
66608;DHT22;53462;39.616;8.824;2022-08-21T14:33:32;32.60;35.30
66608;DHT22;53462;39.616;8.824;2022-08-21T14:35:58;32.50;35.30
66608;DHT22;53462;39.616;8.824;2022-08-21T14:38:27;32.40;35.40
66608;DHT22;53462;39.616;8.824;2022-08-21T14:40:57;32.40;35.70
66608;DHT22;53462;39.616;8.824;2022-08-21T14:43:26;32.40;36.20
66608;DHT22;53462;39.616;8.824;2022-08-21T14:45:52;32.50;36.20
66608;DHT22;53462;39.616;8.824;2022-08-21T14:48:18;32.40;35.40
66608;DHT22;53462;39.616;8.824;2022-08-21T14:50:44;32.30;36.60
66608;DHT22;53462;39.616;8.824;2022-08-21T14:53:10;31.90;36.60
66608;DHT22;53462;39.616;8.824;2022-08-21T14:55:37;32.10;36.60
66608;DHT22;53462;39.616;8.824;2022-08-21T14:58:23;32.10;36.00
66608;DHT22;53462;39.616;8.824;2022-08-21T15:00:51;32.10;36.90
66608;DHT22;53462;39.616;8.824;2022-08-21T15:03:18;32.20;36.30
66608;DHT22;53462;39.616;8.824;2022-08-21T15:05:44;32.10;36.00
66608;DHT22;53462;39.616;8.824;2022-08-21T15:08:11;31.90;36.50
66608;DHT22;53462;39.616;8.824;2022-08-21T15:10:37;31.60;36.50
66608;DHT22;53462;39.616;8.824;2022-08-21T15:13:03;31.60;36.80
66608;DHT22;53462;39.616;8.824;2022-08-21T15:15:50;31.50;37.30
66608;DHT22;53462;39.616;8.824;2022-08-21T15:18:19;31.50;36.50
66608;DHT22;53462;39.616;8.824;2022-08-21T15:20:46;31.30;36.90
66608;DHT22;53462;39.616;8.824;2022-08-21T15:23:12;31.30;37.50
66608;DHT22;53462;39.616;8.824;2022-08-21T15:25:41;31.30;37.10
66608;DHT22;53462;39.616;8.824;2022-08-21T15:28:08;31.10;36.20
66608;DHT22;53462;39.616;8.824;2022-08-21T15:30:38;31.10;37.20
66608;DHT22;53462;39.616;8.824;2022-08-21T15:33:05;31.10;38.20
66608;DHT22;53462;39.616;8.824;2022-08-21T15:35:31;31.30;37.90
66608;DHT22;53462;39.616;8.824;2022-08-21T15:37:57;31.00;37.50
66608;DHT22;53462;39.616;8.824;2022-08-21T15:40:24;31.10;38.00
66608;DHT22;53462;39.616;8.824;2022-08-21T15:42:54;31.20;38.00
66608;DHT22;53462;39.616;8.824;2022-08-21T15:45:21;31.00;37.20
66608;DHT22;53462;39.616;8.824;2022-08-21T15:47:49;30.90;37.40
66608;DHT22;53462;39.616;8.824;2022-08-21T15:50:16;30.80;37.60
66608;DHT22;53462;39.616;8.824;2022-08-21T15:52:42;30.90;37.60
66608;DHT22;53462;39.616;8.824;2022-08-21T15:55:10;30.70;38.10
66608;DHT22;53462;39.616;8.824;2022-08-21T15:57:37;30.60;38.70
66608;DHT22;53462;39.616;8.824;2022-08-21T16:00:11;30.40;39.30
66608;DHT22;53462;39.616;8.824;2022-08-21T16:02:41;30.40;39.50
66608;DHT22;53462;39.616;8.824;2022-08-21T16:05:09;30.20;40.30
66608;DHT22;53462;39.616;8.824;2022-08-21T16:07:38;30.20;39.70
66608;DHT22;53462;39.616;8.824;2022-08-21T16:10:05;30.20;40.40
66608;DHT22;53462;39.616;8.824;2022-08-21T16:12:35;30.00;40.60
66608;DHT22;53462;39.616;8.824;2022-08-21T16:15:04;30.10;41.00
66608;DHT22;53462;39.616;8.824;2022-08-21T16:17:33;30.00;41.90
66608;DHT22;53462;39.616;8.824;2022-08-21T16:20:02;30.00;41.30
66608;DHT22;53462;39.616;8.824;2022-08-21T16:22:31;30.10;41.80
66608;DHT22;53462;39.616;8.824;2022-08-21T16:24:57;29.90;42.10
66608;DHT22;53462;39.616;8.824;2022-08-21T16:27:23;29.90;42.70
66608;DHT22;53462;39.616;8.824;2022-08-21T16:29:49;29.90;43.00
66608;DHT22;53462;39.616;8.824;2022-08-21T16:32:16;29.80;43.80
66608;DHT22;53462;39.616;8.824;2022-08-21T16:34:45;29.70;44.00
66608;DHT22;53462;39.616;8.824;2022-08-21T16:37:13;29.60;44.00
66608;DHT22;53462;39.616;8.824;2022-08-21T16:39:39;29.60;44.50
66608;DHT22;53462;39.616;8.824;2022-08-21T16:42:07;29.50;45.20
66608;DHT22;53462;39.616;8.824;2022-08-21T16:44:35;29.40;45.40
66608;DHT22;53462;39.616;8.824;2022-08-21T16:47:01;29.10;46.20
66608;DHT22;53462;39.616;8.824;2022-08-21T16:49:27;29.00;46.80
66608;DHT22;53462;39.616;8.824;2022-08-21T16:51:53;29.20;47.60
66608;DHT22;53462;39.616;8.824;2022-08-21T16:54:19;29.20;47.80
66608;DHT22;53462;39.616;8.824;2022-08-21T16:56:45;29.20;47.00
66608;DHT22;53462;39.616;8.824;2022-08-21T16:59:11;29.00;47.90
66608;DHT22;53462;39.616;8.824;2022-08-21T17:01:38;29.00;48.80
66608;DHT22;53462;39.616;8.824;2022-08-21T17:04:04;29.00;49.30
66608;DHT22;53462;39.616;8.824;2022-08-21T17:06:31;28.90;49.30
66608;DHT22;53462;39.616;8.824;2022-08-21T17:08:58;28.70;49.90